Time;durP1;ratioP1;P1;durP2;ratioP2;P2;SDS_P1;SDS_P2;PMS_P1;PMS_P2;Temp;Humidity;BMP_temperature;BMP_pressure;BME280_temperature;BME280_humidity;BME280_pressure;Samples;Min_cycle;Max_cycle;Signal;HPM_P1;HPM_P2
2022/05/31 00:02:12;;;;;;;4.73;2.27;;;;;;;;;;5088362;28;20526;-74
2022/05/31 00:04:39;;;;;;;5.23;2.23;;;;;;;;;;5088534;28;20032;-74
2022/05/31 00:07:05;;;;;;;3.53;2.43;;;;;;;;;;5089121;28;20056;-75
2022/05/31 00:09:33;;;;;;;3.43;2.20;;;;;;;;;;5089206;28;20043;-74
2022/05/31 00:11:59;;;;;;;3.13;2.03;;;;;;;;;;5094363;28;20020;-74
2022/05/31 00:14:27;;;;;;;5.23;2.60;;;;;;;;;;5094360;28;20085;-74
2022/05/31 00:16:53;;;;;;;4.93;2.37;;;;;;;;;;5094257;28;20493;-74
2022/05/31 00:19:21;;;;;;;4.87;2.93;;;;;;;;;;5093701;28;20446;-74
2022/05/31 00:21:52;;;;;;;4.90;2.27;;;;;;;;;;5093788;28;20024;-74
2022/05/31 00:24:21;;;;;;;6.50;2.33;;;;;;;;;;5088070;28;20470;-74
2022/05/31 00:26:48;;;;;;;4.00;2.40;;;;;;;;;;5088881;28;20024;-74
2022/05/31 00:29:15;;;;;;;3.57;2.30;;;;;;;;;;5088936;28;20095;-73
2022/05/31 00:31:44;;;;;;;5.43;2.40;;;;;;;;;;5088948;28;20028;-73
2022/05/31 00:34:12;;;;;;;4.70;2.43;;;;;;;;;;5092942;28;20028;-74
2022/05/31 00:36:40;;;;;;;5.53;2.63;;;;;;;;;;5093868;28;20032;-75
2022/05/31 00:39:07;;;;;;;3.80;1.90;;;;;;;;;;5093872;28;20417;-74
2022/05/31 00:41:35;;;;;;;4.63;2.13;;;;;;;;;;5093071;28;20074;-70
2022/05/31 00:44:11;;;;;;;4.03;2.33;;;;;;;;;;5093438;28;20024;-70
2022/05/31 00:46:43;;;;;;;4.50;2.77;;;;;;;;;;5088314;28;20020;-70
2022/05/31 00:49:11;;;;;;;6.23;2.40;;;;;;;;;;5088485;28;20054;-69
2022/05/31 00:51:49;;;;;;;4.53;2.40;;;;;;;;;;5088044;28;20016;-69
2022/05/31 00:54:17;;;;;;;3.20;1.93;;;;;;;;;;5088414;28;20024;-69
2022/05/31 00:56:44;;;;;;;3.47;2.03;;;;;;;;;;5090629;28;20024;-69
2022/05/31 00:59:13;;;;;;;3.50;2.00;;;;;;;;;;5085897;28;20028;-74
2022/05/31 01:01:41;;;;;;;6.53;2.17;;;;;;;;;;5081852;28;20103;-71
2022/05/31 01:04:08;;;;;;;2.47;1.57;;;;;;;;;;5092599;28;20021;-74
2022/05/31 01:06:36;;;;;;;3.40;2.10;;;;;;;;;;5092604;28;20107;-74
2022/05/31 01:09:03;;;;;;;3.57;1.83;;;;;;;;;;5087895;28;20024;-73
2022/05/31 01:11:33;;;;;;;6.83;1.87;;;;;;;;;;5087632;28;20047;-72
2022/05/31 01:13:59;;;;;;;3.70;2.10;;;;;;;;;;5087785;28;20024;-72
2022/05/31 01:16:26;;;;;;;9.13;2.40;;;;;;;;;;5086993;28;20039;-73
2022/05/31 01:18:53;;;;;;;3.57;1.63;;;;;;;;;;5092234;28;20028;-75
2022/05/31 01:21:20;;;;;;;4.43;2.67;;;;;;;;;;5092628;28;20068;-75
2022/05/31 01:23:55;;;;;;;6.60;5.40;;;;;;;;;;5092860;28;20020;-74
2022/05/31 01:27:00;;;;;;;3.77;2.20;;;;;;;;;;5072677;28;20017;-72
2022/05/31 01:29:29;;;;;;;5.50;2.40;;;;;;;;;;5028471;28;20072;-73
2022/05/31 01:32:00;;;;;;;4.43;2.30;;;;;;;;;;5024735;28;20434;-73
2022/05/31 01:34:36;;;;;;;3.17;1.93;;;;;;;;;;5047351;28;20044;-70
2022/05/31 01:37:03;;;;;;;3.57;1.97;;;;;;;;;;5076239;28;20482;-71
2022/05/31 01:39:39;;;;;;;2.83;1.60;;;;;;;;;;5070545;28;20024;-73
2022/05/31 01:42:19;;;;;;;6.30;2.30;;;;;;;;;;5092471;28;20024;-71
2022/05/31 01:44:48;;;;;;;4.33;2.10;;;;;;;;;;5092808;28;20017;-73
2022/05/31 01:47:15;;;;;;;3.80;1.97;;;;;;;;;;5092794;28;20107;-70
2022/05/31 01:49:43;;;;;;;4.00;1.80;;;;;;;;;;5092214;28;20039;-70
2022/05/31 01:52:10;;;;;;;3.10;1.83;;;;;;;;;;5090168;28;20461;-70
2022/05/31 01:54:39;;;;;;;4.90;2.10;;;;;;;;;;5087344;28;20028;-73
2022/05/31 01:57:07;;;;;;;2.90;1.70;;;;;;;;;;5087292;28;20058;-71
2022/05/31 01:59:38;;;;;;;7.37;2.60;;;;;;;;;;5087497;28;20024;-71
2022/05/31 02:02:08;;;;;;;3.80;2.30;;;;;;;;;;5088871;28;20020;-71
2022/05/31 02:04:35;;;;;;;4.07;2.10;;;;;;;;;;5091318;28;20032;-71
2022/05/31 02:07:13;;;;;;;3.00;1.80;;;;;;;;;;5091886;28;20099;-74
2022/05/31 02:09:41;;;;;;;7.13;1.80;;;;;;;;;;5092374;28;20051;-70
2022/05/31 02:12:09;;;;;;;4.23;2.50;;;;;;;;;;5092304;28;20020;-73
2022/05/31 02:14:36;;;;;;;5.63;2.20;;;;;;;;;;5089249;28;20032;-69
2022/05/31 02:17:03;;;;;;;4.67;2.60;;;;;;;;;;5087191;28;20026;-70
2022/05/31 02:19:30;;;;;;;5.27;2.10;;;;;;;;;;5085814;28;20041;-74
2022/05/31 02:21:58;;;;;;;7.33;1.93;;;;;;;;;;5086960;28;20049;-70
2022/05/31 02:24:25;;;;;;;5.53;2.37;;;;;;;;;;5088198;28;20480;-73
2022/05/31 02:26:52;;;;;;;4.50;2.40;;;;;;;;;;5095674;28;20047;-74
2022/05/31 02:29:21;;;;;;;5.77;2.13;;;;;;;;;;5096246;28;20020;-71
2022/05/31 02:31:48;;;;;;;3.43;2.10;;;;;;;;;;5096295;28;20020;-71
2022/05/31 02:34:16;;;;;;;2.93;1.27;;;;;;;;;;5096298;28;20099;-73
2022/05/31 02:36:43;;;;;;;2.47;1.23;;;;;;;;;;5094076;28;20469;-73
2022/05/31 02:39:09;;;;;;;1.93;0.97;;;;;;;;;;5090649;28;20137;-72
2022/05/31 02:41:37;;;;;;;1.87;1.23;;;;;;;;;;5090852;28;20039;-73
2022/05/31 02:44:04;;;;;;;3.87;1.10;;;;;;;;;;5091073;28;20024;-69
2022/05/31 02:46:31;;;;;;;2.37;1.13;;;;;;;;;;5091582;28;20416;-72
2022/05/31 02:48:59;;;;;;;2.87;1.43;;;;;;;;;;5085438;28;20017;-72
2022/05/31 02:51:25;;;;;;;2.93;1.00;;;;;;;;;;5093451;28;20093;-71
2022/05/31 02:53:52;;;;;;;3.70;1.03;;;;;;;;;;5079825;28;20048;-68
2022/05/31 02:56:19;;;;;;;2.63;1.27;;;;;;;;;;5095645;28;20032;-69
2022/05/31 02:58:46;;;;;;;2.53;1.17;;;;;;;;;;5093785;28;20046;-71
2022/05/31 03:01:20;;;;;;;2.50;0.70;;;;;;;;;;5090516;28;20012;-71
2022/05/31 03:03:47;;;;;;;2.47;0.90;;;;;;;;;;5090564;28;20039;-72
2022/05/31 03:06:13;;;;;;;2.83;1.10;;;;;;;;;;5090275;28;20141;-70
2022/05/31 03:08:41;;;;;;;1.97;1.30;;;;;;;;;;5090469;28;20028;-70
2022/05/31 03:11:09;;;;;;;1.33;0.70;;;;;;;;;;5095133;28;20067;-69
2022/05/31 03:13:36;;;;;;;3.50;0.93;;;;;;;;;;5094881;28;20024;-69
2022/05/31 03:16:04;;;;;;;1.77;0.80;;;;;;;;;;5095340;28;20020;-71
2022/05/31 03:18:39;;;;;;;3.30;0.93;;;;;;;;;;5094984;28;20055;-68
2022/05/31 03:21:17;;;;;;;1.45;0.85;;;;;;;;;;5093498;28;20135;-72
2022/05/31 03:23:46;;;;;;;2.00;0.90;;;;;;;;;;5074978;28;20032;-74
2022/05/31 03:26:14;;;;;;;1.97;0.77;;;;;;;;;;5090400;28;20039;-69
2022/05/31 03:28:41;;;;;;;1.60;0.90;;;;;;;;;;5089660;28;20035;-72
2022/05/31 03:31:08;;;;;;;2.30;0.90;;;;;;;;;;5090931;28;20387;-71
2022/05/31 03:33:35;;;;;;;2.87;0.70;;;;;;;;;;5095052;28;20106;-72
2022/05/31 03:36:04;;;;;;;1.43;0.70;;;;;;;;;;5094457;28;20047;-75
2022/05/31 03:38:35;;;;;;;1.90;0.83;;;;;;;;;;5095157;28;20081;-73
2022/05/31 03:41:03;;;;;;;2.77;1.00;;;;;;;;;;5094988;28;20518;-74
2022/05/31 03:43:32;;;;;;;1.37;0.80;;;;;;;;;;5092657;28;20020;-75
2022/05/31 03:45:58;;;;;;;1.40;0.80;;;;;;;;;;5089656;28;20024;-70
2022/05/31 03:48:27;;;;;;;2.50;0.67;;;;;;;;;;5089650;28;20107;-71
2022/05/31 03:51:04;;;;;;;1.13;0.60;;;;;;;;;;5089294;28;20494;-72
2022/05/31 03:53:31;;;;;;;2.33;0.67;;;;;;;;;;5090531;28;20023;-73
2022/05/31 03:56:01;;;;;;;0.63;0.40;;;;;;;;;;5094564;28;20421;-72
2022/05/31 03:58:27;;;;;;;1.47;0.70;;;;;;;;;;5093973;28;20123;-74
2022/05/31 04:00:54;;;;;;;3.90;0.73;;;;;;;;;;5094508;28;20032;-74
2022/05/31 04:03:21;;;;;;;1.97;0.47;;;;;;;;;;5094192;28;20056;-77
2022/05/31 04:05:49;;;;;;;3.97;0.70;;;;;;;;;;5074999;28;20088;-71
2022/05/31 04:08:16;;;;;;;3.43;0.70;;;;;;;;;;5089292;28;20032;-71
2022/05/31 04:10:44;;;;;;;1.37;0.80;;;;;;;;;;5089283;28;20035;-74
2022/05/31 04:13:11;;;;;;;3.43;0.77;;;;;;;;;;5089039;28;20028;-72
2022/05/31 04:15:38;;;;;;;0.97;0.67;;;;;;;;;;5089658;28;20020;-74
2022/05/31 04:18:05;;;;;;;1.63;0.63;;;;;;;;;;5094214;28;20438;-72
2022/05/31 04:20:32;;;;;;;1.97;0.70;;;;;;;;;;5093282;28;20030;-72
2022/05/31 04:25:45;;;;;;;4.75;0.95;;;;;;;;;;5094258;28;20083;-73
2022/05/31 04:28:11;;;;;;;1.90;0.67;;;;;;;;;;5092184;28;20028;-72
2022/05/31 04:30:39;;;;;;;1.67;0.90;;;;;;;;;;5088409;28;20043;-72
2022/05/31 04:33:05;;;;;;;5.90;0.60;;;;;;;;;;5088430;28;20118;-72
2022/05/31 04:35:32;;;;;;;1.53;0.80;;;;;;;;;;5088591;28;20054;-72
2022/05/31 04:37:59;;;;;;;1.43;0.90;;;;;;;;;;5089571;28;20475;-71
2022/05/31 04:40:25;;;;;;;2.77;1.27;;;;;;;;;;5093695;28;20344;-72
2022/05/31 04:42:52;;;;;;;2.30;0.93;;;;;;;;;;5093837;28;20020;-72
2022/05/31 04:45:19;;;;;;;1.80;0.70;;;;;;;;;;5093807;28;20024;-71
2022/05/31 04:47:46;;;;;;;1.27;0.90;;;;;;;;;;5092852;28;20032;-72
2022/05/31 04:50:13;;;;;;;1.83;0.93;;;;;;;;;;5092357;28;20497;-72
2022/05/31 04:52:40;;;;;;;1.90;0.90;;;;;;;;;;5088400;28;20019;-72
2022/05/31 04:55:07;;;;;;;2.13;0.87;;;;;;;;;;5088492;28;20077;-72
2022/05/31 04:57:35;;;;;;;0.83;0.40;;;;;;;;;;5088138;28;20031;-72
2022/05/31 05:00:02;;;;;;;1.73;0.80;;;;;;;;;;5087977;28;20028;-72
2022/05/31 05:02:29;;;;;;;2.00;1.00;;;;;;;;;;5075185;28;20378;-72
2022/05/31 05:04:55;;;;;;;1.57;0.90;;;;;;;;;;5092863;28;20031;-72
2022/05/31 05:07:22;;;;;;;1.03;0.60;;;;;;;;;;5093069;28;20108;-72
2022/05/31 05:09:49;;;;;;;0.93;0.70;;;;;;;;;;5093187;28;20081;-72
2022/05/31 05:12:15;;;;;;;1.40;0.73;;;;;;;;;;5093052;28;20024;-72
2022/05/31 05:14:42;;;;;;;5.10;0.80;;;;;;;;;;5088028;28;20401;-71
2022/05/31 05:17:09;;;;;;;1.60;0.60;;;;;;;;;;5088110;28;20085;-72
2022/05/31 05:19:35;;;;;;;1.30;0.60;;;;;;;;;;5088036;28;20114;-72
2022/05/31 05:22:02;;;;;;;1.80;0.50;;;;;;;;;;5087492;28;20031;-72
2022/05/31 05:24:29;;;;;;;2.40;0.70;;;;;;;;;;5081359;28;20024;-73
2022/05/31 05:26:55;;;;;;;0.77;0.50;;;;;;;;;;5072728;28;20046;-72
2022/05/31 05:32:08;;;;;;;0.95;0.50;;;;;;;;;;5092894;28;20378;-73
2022/05/31 05:34:34;;;;;;;1.37;0.77;;;;;;;;;;5080551;28;20025;-71
2022/05/31 05:37:01;;;;;;;1.47;0.83;;;;;;;;;;5066867;28;20029;-71
2022/05/31 05:39:28;;;;;;;1.43;0.80;;;;;;;;;;5078126;28;20028;-71
2022/05/31 05:41:54;;;;;;;2.63;1.00;;;;;;;;;;5087382;28;20028;-71
2022/05/31 05:44:21;;;;;;;2.90;1.40;;;;;;;;;;5087177;28;20035;-71
2022/05/31 05:46:48;;;;;;;6.50;2.43;;;;;;;;;;5091770;28;20035;-71
2022/05/31 05:49:15;;;;;;;5.63;2.43;;;;;;;;;;5092390;28;20023;-71
2022/05/31 05:51:41;;;;;;;5.87;3.00;;;;;;;;;;5092606;28;20389;-71
2022/05/31 05:54:08;;;;;;;5.70;2.97;;;;;;;;;;5092023;28;20025;-71
2022/05/31 05:56:35;;;;;;;5.33;2.10;;;;;;;;;;5092128;28;20077;-71
2022/05/31 05:59:01;;;;;;;3.13;1.40;;;;;;;;;;5087461;28;20031;-71
2022/05/31 06:01:29;;;;;;;3.00;1.60;;;;;;;;;;5086181;28;20020;-71
2022/05/31 06:04:21;;;;;;;1.80;1.03;;;;;;;;;;5086924;28;20390;-71
2022/05/31 06:06:53;;;;;;;1.93;1.10;;;;;;;;;;5083919;28;20036;-70
2022/05/31 06:09:21;;;;;;;1.97;1.00;;;;;;;;;;5092010;28;20399;-71
2022/05/31 06:11:53;;;;;;;4.13;1.57;;;;;;;;;;5092271;28;20027;-71
2022/05/31 06:14:20;;;;;;;3.30;1.47;;;;;;;;;;5091938;28;20093;-71
2022/05/31 06:16:52;;;;;;;2.80;1.60;;;;;;;;;;5091928;28;20398;-71
2022/05/31 06:19:28;;;;;;;2.17;1.20;;;;;;;;;;5092054;28;20032;-71
2022/05/31 06:21:55;;;;;;;4.90;1.23;;;;;;;;;;5086632;28;20493;-71
2022/05/31 06:24:23;;;;;;;2.23;1.10;;;;;;;;;;5086595;28;20024;-71
2022/05/31 06:26:50;;;;;;;4.60;1.30;;;;;;;;;;5068492;28;20429;-72
2022/05/31 06:29:17;;;;;;;2.27;1.37;;;;;;;;;;5086248;28;20025;-71
2022/05/31 06:31:43;;;;;;;2.70;1.43;;;;;;;;;;5091711;28;20039;-71
2022/05/31 06:34:10;;;;;;;3.47;1.63;;;;;;;;;;5092236;28;20024;-71
2022/05/31 06:36:39;;;;;;;3.40;1.37;;;;;;;;;;5091961;28;20073;-71
2022/05/31 06:39:06;;;;;;;2.63;1.33;;;;;;;;;;5092022;28;20059;-71
2022/05/31 06:41:32;;;;;;;2.93;1.30;;;;;;;;;;5091819;28;20479;-71
2022/05/31 06:44:02;;;;;;;3.17;1.47;;;;;;;;;;5086323;28;20395;-72
2022/05/31 06:46:30;;;;;;;5.67;1.33;;;;;;;;;;5086594;28;20028;-71
2022/05/31 06:48:57;;;;;;;2.87;1.40;;;;;;;;;;5086267;28;20023;-71
2022/05/31 06:56:57;;;;;;;1.60;0.88;;;;;;;;;;5091847;28;20039;-71
2022/05/31 06:59:24;;;;;;;2.40;0.93;;;;;;;;;;5091897;28;20070;-70
2022/05/31 07:01:53;;;;;;;3.07;0.83;;;;;;;;;;5091941;28;20107;-71
2022/05/31 07:04:20;;;;;;;1.90;0.70;;;;;;;;;;5090500;28;20380;-71
2022/05/31 07:06:46;;;;;;;1.37;0.70;;;;;;;;;;5085876;28;20034;-72
2022/05/31 07:09:13;;;;;;;1.87;0.70;;;;;;;;;;5086457;28;20380;-71
2022/05/31 07:11:40;;;;;;;1.13;0.60;;;;;;;;;;5087492;28;20040;-71
2022/05/31 07:14:07;;;;;;;9.57;1.00;;;;;;;;;;5090540;28;20023;-70
2022/05/31 07:16:33;;;;;;;1.20;0.70;;;;;;;;;;5095301;28;20036;-70
2022/05/31 07:19:00;;;;;;;1.17;0.60;;;;;;;;;;5095318;28;20028;-70
2022/05/31 07:21:26;;;;;;;4.37;1.40;;;;;;;;;;5095360;28;20016;-70
2022/05/31 07:23:53;;;;;;;4.17;1.40;;;;;;;;;;5095050;28;20030;-71
2022/05/31 07:26:20;;;;;;;2.00;1.10;;;;;;;;;;5094329;28;20031;-71
2022/05/31 07:28:47;;;;;;;3.40;1.27;;;;;;;;;;5089861;28;20020;-70
2022/05/31 07:31:13;;;;;;;3.13;1.30;;;;;;;;;;5089706;28;20390;-70
2022/05/31 07:33:40;;;;;;;4.87;2.47;;;;;;;;;;5089847;28;20028;-70
2022/05/31 07:36:07;;;;;;;7.23;3.87;;;;;;;;;;5089569;28;20103;-71
2022/05/31 07:38:35;;;;;;;6.33;3.67;;;;;;;;;;5095095;28;20108;-70
2022/05/31 07:41:02;;;;;;;5.47;3.43;;;;;;;;;;5094427;28;20039;-71
2022/05/31 07:43:29;;;;;;;5.70;2.83;;;;;;;;;;5094895;28;20028;-70
2022/05/31 07:46:10;;;;;;;6.37;2.20;;;;;;;;;;5094804;28;20095;-70
2022/05/31 07:48:38;;;;;;;3.67;2.23;;;;;;;;;;5093976;28;20024;-71
2022/05/31 07:51:05;;;;;;;2.07;1.30;;;;;;;;;;5089097;28;20031;-71
2022/05/31 07:53:32;;;;;;;2.53;1.30;;;;;;;;;;5089440;28;20132;-71
2022/05/31 07:56:00;;;;;;;1.87;1.43;;;;;;;;;;5089071;28;20035;-70
2022/05/31 07:58:33;;;;;;;1.47;0.80;;;;;;;;;;5089228;28;20107;-71
2022/05/31 08:01:01;;;;;;;1.27;0.90;;;;;;;;;;5094626;28;20059;-70
2022/05/31 08:03:29;;;;;;;1.23;0.90;;;;;;;;;;5094467;28;20016;-70
2022/05/31 08:05:55;;;;;;;1.80;0.87;;;;;;;;;;5093974;28;20020;-71
2022/05/31 08:08:22;;;;;;;3.23;1.10;;;;;;;;;;5094561;28;20020;-70
2022/05/31 08:10:49;;;;;;;1.33;0.90;;;;;;;;;;5093724;28;20028;-70
2022/05/31 08:13:15;;;;;;;2.50;1.30;;;;;;;;;;5088532;28;20039;-70
2022/05/31 08:15:42;;;;;;;1.57;0.83;;;;;;;;;;5088865;28;20104;-70
2022/05/31 08:18:09;;;;;;;1.77;1.20;;;;;;;;;;5088765;28;20379;-70
2022/05/31 08:20:35;;;;;;;2.23;1.10;;;;;;;;;;5088796;28;20024;-72
2022/05/31 08:23:02;;;;;;;2.20;1.17;;;;;;;;;;5092962;28;20024;-70
2022/05/31 08:25:29;;;;;;;2.47;1.47;;;;;;;;;;5094110;28;20493;-70
2022/05/31 08:27:55;;;;;;;1.60;1.03;;;;;;;;;;5093720;28;20386;-70
2022/05/31 08:30:22;;;;;;;2.37;1.27;;;;;;;;;;5093973;28;20036;-70
2022/05/31 08:32:48;;;;;;;2.53;1.47;;;;;;;;;;5093820;28;20024;-70
2022/05/31 08:35:15;;;;;;;1.77;1.20;;;;;;;;;;5088446;28;20060;-70
2022/05/31 08:37:41;;;;;;;1.53;1.17;;;;;;;;;;5088167;28;20509;-72
2022/05/31 08:40:08;;;;;;;1.57;1.00;;;;;;;;;;5088304;28;20035;-70
2022/05/31 08:42:57;;;;;;;1.73;1.03;;;;;;;;;;5088233;28;20040;-70
2022/05/31 08:45:30;;;;;;;3.17;1.00;;;;;;;;;;5093766;28;20023;-70
2022/05/31 08:48:00;;;;;;;1.80;1.00;;;;;;;;;;5093403;28;20046;-71
2022/05/31 08:53:17;;;;;;;1.33;0.97;;;;;;;;;;5093882;28;20129;-70
2022/05/31 08:58:40;;;;;;;4.57;1.10;;;;;;;;;;5068032;28;20070;-70
2022/05/31 09:01:07;;;;;;;1.10;0.70;;;;;;;;;;5076131;28;20032;-70
2022/05/31 09:03:33;;;;;;;1.23;0.93;;;;;;;;;;5088004;28;20036;-70
2022/05/31 09:06:07;;;;;;;1.33;0.87;;;;;;;;;;5090147;28;20024;-70
2022/05/31 09:08:44;;;;;;;1.70;0.90;;;;;;;;;;5093354;28;20437;-70
2022/05/31 09:11:19;;;;;;;1.57;0.70;;;;;;;;;;5093209;28;20036;-70
2022/05/31 09:13:50;;;;;;;1.77;0.90;;;;;;;;;;5092545;28;20047;-70
2022/05/31 09:16:17;;;;;;;1.33;0.83;;;;;;;;;;5093032;28;20023;-71
2022/05/31 09:18:55;;;;;;;2.00;1.10;;;;;;;;;;5089405;28;20036;-71
2022/05/31 09:21:22;;;;;;;1.57;1.27;;;;;;;;;;5087817;28;20032;-71
2022/05/31 09:23:49;;;;;;;1.40;0.87;;;;;;;;;;5087458;28;20158;-71
2022/05/31 09:26:18;;;;;;;1.43;0.73;;;;;;;;;;5087640;28;20544;-70
2022/05/31 09:28:52;;;;;;;0.87;0.70;;;;;;;;;;5090518;28;20488;-70
2022/05/31 09:31:39;;;;;;;0.70;0.50;;;;;;;;;;5092926;28;20547;-71
2022/05/31 09:34:14;;;;;;;2.00;0.90;;;;;;;;;;5092670;28;20067;-70
2022/05/31 09:36:45;;;;;;;1.23;0.70;;;;;;;;;;5092876;28;20108;-70
2022/05/31 09:39:34;;;;;;;0.70;0.50;;;;;;;;;;5092789;28;20103;-70
2022/05/31 09:42:22;;;;;;;1.00;0.60;;;;;;;;;;5087267;28;20024;-70
2022/05/31 09:44:51;;;;;;;1.03;0.70;;;;;;;;;;5086701;28;20028;-70
2022/05/31 09:47:27;;;;;;;2.30;0.57;;;;;;;;;;5087041;28;20362;-70
2022/05/31 09:49:54;;;;;;;1.67;0.90;;;;;;;;;;5088016;28;20035;-70
2022/05/31 09:52:24;;;;;;;1.57;0.80;;;;;;;;;;5092652;28;20483;-70
2022/05/31 09:58:17;;;;;;;2.37;0.80;;;;;;;;;;5092338;28;20039;-71
2022/05/31 10:01:10;;;;;;;1.33;0.73;;;;;;;;;;5031249;28;20444;-71
2022/05/31 10:03:44;;;;;;;2.73;0.93;;;;;;;;;;5051884;28;20113;-70
2022/05/31 10:06:26;;;;;;;1.55;0.82;;;;;;;;;;5066841;28;20036;-70
2022/05/31 10:08:54;;;;;;;0.90;0.63;;;;;;;;;;5066870;28;20063;-70
2022/05/31 10:11:43;;;;;;;1.03;0.70;;;;;;;;;;5066586;28;20056;-71
2022/05/31 10:14:21;;;;;;;1.47;0.70;;;;;;;;;;5072256;28;20028;-71
2022/05/31 10:16:49;;;;;;;1.50;0.87;;;;;;;;;;5072180;28;20028;-70
2022/05/31 10:19:31;;;;;;;1.10;0.80;;;;;;;;;;5071974;28;20056;-70
2022/05/31 10:22:14;;;;;;;1.40;0.73;;;;;;;;;;5071764;28;20086;-70
2022/05/31 10:24:41;;;;;;;0.70;0.50;;;;;;;;;;5070063;28;20108;-70
2022/05/31 10:27:12;;;;;;;1.40;0.90;;;;;;;;;;5077412;28;20500;-71
2022/05/31 10:29:43;;;;;;;1.50;0.93;;;;;;;;;;5086526;28;20107;-71
2022/05/31 10:32:21;;;;;;;4.03;1.20;;;;;;;;;;5086735;28;20492;-70
2022/05/31 10:34:48;;;;;;;2.63;1.43;;;;;;;;;;5088364;28;20028;-70
2022/05/31 10:37:28;;;;;;;1.77;1.17;;;;;;;;;;5092013;28;20024;-71
2022/05/31 10:40:07;;;;;;;3.33;1.10;;;;;;;;;;5091890;28;20019;-70
2022/05/31 10:42:35;;;;;;;2.67;1.40;;;;;;;;;;5091595;28;20104;-70
2022/05/31 10:45:04;;;;;;;2.50;1.40;;;;;;;;;;5091542;28;20017;-71
2022/05/31 10:47:31;;;;;;;3.57;1.70;;;;;;;;;;5091334;28;20032;-70
2022/05/31 10:49:57;;;;;;;4.53;1.70;;;;;;;;;;5072231;28;20402;-70
2022/05/31 10:52:46;;;;;;;5.40;2.43;;;;;;;;;;5090507;28;20081;-70
2022/05/31 10:55:22;;;;;;;5.20;2.53;;;;;;;;;;5089830;28;20028;-71
2022/05/31 10:57:55;;;;;;;5.43;2.47;;;;;;;;;;5093624;28;20020;-70
2022/05/31 11:00:26;;;;;;;7.87;2.47;;;;;;;;;;5095703;28;20077;-70
2022/05/31 11:03:00;;;;;;;5.33;2.40;;;;;;;;;;5095403;28;20032;-70
2022/05/31 11:05:48;;;;;;;7.93;1.90;;;;;;;;;;5095181;28;20042;-71
2022/05/31 11:13:51;;;;;;;5.60;2.90;;;;;;;;;;5090051;28;20050;-71
2022/05/31 11:16:18;;;;;;;11.20;2.73;;;;;;;;;;5090131;28;20100;-70
2022/05/31 11:18:55;;;;;;;4.90;1.57;;;;;;;;;;5090728;28;20028;-71
2022/05/31 11:21:24;;;;;;;3.93;1.97;;;;;;;;;;5094909;28;20547;-70
2022/05/31 11:23:54;;;;;;;3.80;2.07;;;;;;;;;;5094974;28;20051;-70
2022/05/31 11:26:29;;;;;;;3.00;1.40;;;;;;;;;;5095282;28;20132;-70
2022/05/31 11:28:55;;;;;;;;;;;;;;;;;;5095435;28;20020;-71
2022/05/31 11:31:37;;;;;;;2.47;1.17;;;;;;;;;;5092963;28;20015;-70
2022/05/31 11:34:10;;;;;;;2.23;1.20;;;;;;;;;;5089729;28;20024;-71
2022/05/31 11:36:40;;;;;;;2.70;1.43;;;;;;;;;;5089921;28;20027;-70
2022/05/31 11:39:13;;;;;;;2.53;1.47;;;;;;;;;;5089779;28;20125;-71
2022/05/31 11:41:47;;;;;;;2.20;1.20;;;;;;;;;;5092192;28;20101;-70
2022/05/31 11:44:32;;;;;;;2.42;1.10;;;;;;;;;;5094535;28;20036;-71
2022/05/31 11:46:58;;;;;;;2.60;1.25;;;;;;;;;;5094886;28;20052;-71
2022/05/31 11:49:32;;;;;;;2.10;1.20;;;;;;;;;;5094570;28;20103;-71
2022/05/31 11:52:21;;;;;;;4.10;1.30;;;;;;;;;;5094564;28;20382;-71
2022/05/31 11:58:16;;;;;;;1.13;0.83;;;;;;;;;;5089166;28;20081;-71
2022/05/31 12:00:47;;;;;;;2.87;1.10;;;;;;;;;;5089307;28;20031;-70
2022/05/31 12:03:17;;;;;;;1.83;1.10;;;;;;;;;;5090313;28;20478;-70
2022/05/31 12:05:50;;;;;;;2.57;1.20;;;;;;;;;;5093929;28;20486;-71
2022/05/31 12:08:28;;;;;;;2.23;1.30;;;;;;;;;;5094446;28;20118;-70
2022/05/31 12:10:57;;;;;;;1.20;0.80;;;;;;;;;;5093927;28;20429;-71
2022/05/31 12:13:23;;;;;;;1.60;1.00;;;;;;;;;;5094176;28;20028;-71
2022/05/31 12:15:52;;;;;;;1.53;1.03;;;;;;;;;;5091549;28;20081;-71
2022/05/31 12:18:27;;;;;;;1.60;1.00;;;;;;;;;;5088698;28;20475;-70
2022/05/31 12:21:07;;;;;;;1.37;0.87;;;;;;;;;;5088641;28;20445;-71
2022/05/31 12:23:41;;;;;;;2.33;1.10;;;;;;;;;;5088857;28;20040;-70
2022/05/31 12:26:16;;;;;;;1.90;1.07;;;;;;;;;;5091016;28;20020;-71
2022/05/31 12:28:50;;;;;;;2.33;1.53;;;;;;;;;;5093641;28;20032;-71
2022/05/31 12:31:22;;;;;;;2.13;1.30;;;;;;;;;;5093712;28;20040;-70
2022/05/31 12:33:49;;;;;;;2.67;1.43;;;;;;;;;;5093887;28;20073;-70
2022/05/31 12:36:22;;;;;;;4.27;2.20;;;;;;;;;;5093460;28;20019;-72
2022/05/31 12:39:02;;;;;;;4.23;2.27;;;;;;;;;;5089661;28;20028;-70
2022/05/31 12:41:33;;;;;;;4.20;2.60;;;;;;;;;;5088350;28;20030;-71
2022/05/31 12:44:00;;;;;;;5.67;3.47;;;;;;;;;;5088371;28;20050;-71
2022/05/31 12:46:38;;;;;;;8.57;3.03;;;;;;;;;;5088037;28;20107;-71
2022/05/31 12:49:07;;;;;;;5.63;2.90;;;;;;;;;;5092676;28;20030;-71
2022/05/31 12:51:33;;;;;;;4.93;2.47;;;;;;;;;;5093608;28;20039;-71
2022/05/31 12:54:07;;;;;;;3.10;1.70;;;;;;;;;;5093566;28;20024;-71
2022/05/31 12:56:36;;;;;;;3.43;1.70;;;;;;;;;;5093411;28;20063;-70
2022/05/31 12:59:04;;;;;;;4.20;1.30;;;;;;;;;;5093116;28;20322;-71
2022/05/31 13:01:30;;;;;;;2.30;1.40;;;;;;;;;;5087704;28;20028;-71
2022/05/31 13:03:59;;;;;;;3.40;1.80;;;;;;;;;;5088143;28;20035;-71
2022/05/31 13:06:29;;;;;;;2.60;1.67;;;;;;;;;;5087948;28;20077;-72
2022/05/31 13:09:11;;;;;;;3.10;1.83;;;;;;;;;;5086303;28;20046;-71
2022/05/31 13:20:39;;;;;;;4.60;1.87;;;;;;;;;;5093365;28;20081;-72
2022/05/31 13:23:06;;;;;;;4.97;2.13;;;;;;;;;;5088293;28;20024;-72
2022/05/31 13:25:45;;;;;;;5.00;1.60;;;;;;;;;;5087641;28;20395;-73
2022/05/31 13:28:32;;;;;;;2.33;1.30;;;;;;;;;;5087603;28;20028;-72
2022/05/31 13:31:04;;;;;;;2.60;1.60;;;;;;;;;;5087078;28;20039;-73
2022/05/31 13:33:32;;;;;;;4.70;1.50;;;;;;;;;;5091882;28;20024;-73
2022/05/31 13:36:04;;;;;;;2.23;1.30;;;;;;;;;;5092746;28;20076;-73
2022/05/31 13:38:33;;;;;;;2.90;1.90;;;;;;;;;;5092574;28;20028;-73
2022/05/31 13:41:02;;;;;;;3.90;1.70;;;;;;;;;;5092613;28;20031;-74
2022/05/31 13:43:40;;;;;;;3.83;1.83;;;;;;;;;;5092345;28;20027;-73
2022/05/31 13:46:25;;;;;;;2.37;1.40;;;;;;;;;;5086790;28;20031;-73
2022/05/31 13:48:54;;;;;;;1.58;1.00;;;;;;;;;;5086906;28;20431;-73
2022/05/31 13:51:22;;;;;;;4.10;1.63;;;;;;;;;;5086587;28;20115;-73
2022/05/31 13:53:49;;;;;;;3.10;1.60;;;;;;;;;;5086632;28;20491;-73
2022/05/31 13:56:19;;;;;;;2.27;1.30;;;;;;;;;;5092482;28;20094;-73
2022/05/31 13:58:49;;;;;;;2.20;1.23;;;;;;;;;;5092331;28;20020;-73
2022/05/31 14:01:34;;;;;;;6.17;1.30;;;;;;;;;;5092459;28;20020;-73
2022/05/31 14:04:13;;;;;;;2.33;1.20;;;;;;;;;;5092004;28;20448;-73
2022/05/31 14:06:41;;;;;;;1.63;1.17;;;;;;;;;;5090303;28;20390;-73
2022/05/31 14:09:12;;;;;;;2.53;1.30;;;;;;;;;;5086438;28;20368;-73
2022/05/31 14:11:53;;;;;;;2.83;1.07;;;;;;;;;;5086167;28;20035;-75
2022/05/31 14:14:20;;;;;;;2.73;1.30;;;;;;;;;;5086845;28;20559;-73
2022/05/31 14:16:47;;;;;;;1.80;1.10;;;;;;;;;;5088789;28;20020;-73
2022/05/31 14:19:16;;;;;;;2.07;1.10;;;;;;;;;;5092295;28;20039;-73
2022/05/31 14:21:44;;;;;;;1.87;1.00;;;;;;;;;;5093376;28;20039;-73
2022/05/31 14:24:11;;;;;;;4.83;1.30;;;;;;;;;;5096230;28;20089;-74
2022/05/31 14:26:39;;;;;;;1.50;1.03;;;;;;;;;;5096143;28;20095;-73
2022/05/31 14:29:14;;;;;;;0.87;0.70;;;;;;;;;;5073600;28;20021;-73
2022/05/31 14:31:41;;;;;;;;;;;;;;;;;;5071119;28;20032;-73
2022/05/31 14:34:12;;;;;;;1.20;0.80;;;;;;;;;;5070434;28;19915;-73
2022/05/31 14:36:39;;;;;;;1.80;0.50;;;;;;;;;;5083814;28;20024;-75
2022/05/31 14:39:06;;;;;;;0.87;0.70;;;;;;;;;;5092797;28;20032;-74
2022/05/31 14:41:36;;;;;;;1.50;0.70;;;;;;;;;;5096101;28;20024;-74
2022/05/31 14:44:03;;;;;;;4.93;2.77;;;;;;;;;;5095826;28;20379;-73
2022/05/31 14:46:34;;;;;;;1.93;0.97;;;;;;;;;;5096260;28;20031;-73
2022/05/31 14:49:12;;;;;;;3.13;1.60;;;;;;;;;;5095905;28;20028;-74
2022/05/31 14:51:42;;;;;;;2.03;0.50;;;;;;;;;;5092951;28;20126;-74
2022/05/31 14:54:27;;;;;;;2.43;0.50;;;;;;;;;;5090542;28;20035;-73
2022/05/31 14:56:53;;;;;;;0.88;0.55;;;;;;;;;;5090285;28;20081;-74
2022/05/31 14:59:23;;;;;;;1.00;0.60;;;;;;;;;;5090314;28;20051;-78
2022/05/31 15:01:51;;;;;;;0.60;0.50;;;;;;;;;;5093058;28;20028;-74
2022/05/31 15:04:26;;;;;;;0.80;0.60;;;;;;;;;;5095892;28;20016;-74
2022/05/31 15:06:52;;;;;;;;;;;;;;;;;;5096173;28;20024;-74
2022/05/31 15:09:19;;;;;;;1.97;0.60;;;;;;;;;;5095755;28;19991;-74
2022/05/31 15:20:13;;;;;;;0.30;0.30;;;;;;;;;;5090046;28;20086;-74
2022/05/31 15:22:41;;;;;;;0.40;0.30;;;;;;;;;;5090082;28;20505;-74
2022/05/31 15:25:08;;;;;;;1.20;0.50;;;;;;;;;;5095268;28;20024;-74
2022/05/31 15:27:36;;;;;;;0.60;0.43;;;;;;;;;;5095367;28;20028;-74
2022/05/31 15:30:04;;;;;;;1.80;0.50;;;;;;;;;;5094185;28;20392;-75
2022/05/31 15:32:31;;;;;;;0.57;0.50;;;;;;;;;;5094763;28;20424;-75
2022/05/31 15:34:58;;;;;;;0.47;0.33;;;;;;;;;;5094952;28;20091;-74
2022/05/31 15:37:27;;;;;;;0.30;0.27;;;;;;;;;;5089481;28;20111;-74
2022/05/31 15:39:56;;;;;;;2.13;0.60;;;;;;;;;;5089561;28;20367;-74
2022/05/31 15:42:23;;;;;;;2.13;0.40;;;;;;;;;;5089510;28;20028;-74
2022/05/31 15:44:50;;;;;;;3.10;0.70;;;;;;;;;;5088331;28;20031;-74
2022/05/31 15:47:17;;;;;;;2.13;0.70;;;;;;;;;;5094924;28;20138;-75